Time;durP1;ratioP1;P1;durP2;ratioP2;P2;SDS_P1;SDS_P2;PMS_P1;PMS_P2;Temp;Humidity;BMP_temperature;BMP_pressure;BME280_temperature;BME280_humidity;BME280_pressure;Samples;Min_cycle;Max_cycle;Signal;HPM_P1;HPM_P2
2023/12/17 00:01:32;;;;;;;25.70;19.50;;;8.80;99.90;;;8.04;100.00;102871.59;5074447;28;20263;-71
2023/12/17 00:04:00;;;;;;;25.63;19.13;;;8.90;99.90;;;8.07;100.00;102876.75;5074509;28;20657;-72
2023/12/17 00:06:29;;;;;;;24.63;19.30;;;8.90;99.90;;;8.07;100.00;102864.28;5074572;28;20209;-72
2023/12/17 00:08:57;;;;;;;23.37;19.27;;;8.90;99.90;;;8.08;100.00;102854.47;5074248;28;20209;-71
2023/12/17 00:11:25;;;;;;;22.27;19.23;;;8.90;99.90;;;8.07;100.00;102855.41;5075227;28;20213;-71
2023/12/17 00:13:55;;;;;;;22.00;18.90;;;8.90;99.90;;;8.06;100.00;102859.88;5073956;28;20745;-72
2023/12/17 00:16:23;;;;;;;23.43;19.27;;;8.90;99.90;;;8.08;100.00;102846.47;5074288;28;20233;-72
2023/12/17 00:18:51;;;;;;;23.70;19.70;;;8.90;99.90;;;8.07;100.00;102855.41;5074472;28;20292;-71
2023/12/17 00:21:19;;;;;;;23.47;20.00;;;8.90;99.90;;;8.07;100.00;102850.94;5074065;28;20209;-71
2023/12/17 00:23:48;;;;;;;22.20;19.33;;;8.90;99.90;;;8.10;100.00;102849.88;5074654;28;20252;-72
2023/12/17 00:26:16;;;;;;;23.73;18.80;;;8.90;99.90;;;8.12;100.00;102861.31;5073869;28;20718;-71
2023/12/17 00:28:44;;;;;;;22.67;19.57;;;8.90;99.90;;;8.10;100.00;102855.22;5074296;28;20210;-71
2023/12/17 00:31:14;;;;;;;24.13;18.80;;;8.90;99.90;;;8.09;100.00;102845.50;5073688;28;20573;-71
2023/12/17 00:33:42;;;;;;;23.73;19.07;;;8.90;99.90;;;8.11;100.00;102846.28;5073615;28;20613;-72
2023/12/17 00:36:11;;;;;;;23.30;19.13;;;8.90;99.90;;;8.11;100.00;102851.63;5074190;28;20201;-72
2023/12/17 00:38:39;;;;;;;20.97;18.33;;;8.90;99.90;;;8.12;100.00;102853.31;5073917;28;20203;-72
2023/12/17 00:41:07;;;;;;;21.93;19.43;;;8.90;99.90;;;8.14;100.00;102857.63;5073531;28;20690;-72
2023/12/17 00:43:36;;;;;;;21.93;19.33;;;8.90;99.90;;;8.13;100.00;102849.69;5073770;28;20312;-72
2023/12/17 00:46:05;;;;;;;22.30;18.57;;;8.90;99.90;;;8.13;100.00;102860.38;5073744;28;20312;-71
2023/12/17 00:48:34;;;;;;;21.17;18.10;;;8.90;99.90;;;8.14;100.00;102870.09;5073770;28;20205;-72
2023/12/17 00:51:04;;;;;;;24.30;18.57;;;9.00;99.90;;;8.13;100.00;102866.56;5073753;28;20296;-71
2023/12/17 00:53:32;;;;;;;22.40;18.87;;;9.00;99.90;;;8.13;100.00;102860.38;5073334;28;20221;-71
2023/12/17 00:56:00;;;;;;;21.00;17.87;;;9.00;99.90;;;8.13;100.00;102857.69;5073650;28;20316;-71
2023/12/17 00:58:28;;;;;;;20.43;18.27;;;9.00;99.90;;;8.11;100.00;102846.28;5073622;28;20284;-71
2023/12/17 01:00:56;;;;;;;21.43;17.90;;;8.90;99.90;;;8.12;100.00;102839.97;5095679;22;20241;-77
2023/12/17 01:03:25;;;;;;;22.00;17.97;;;8.90;99.90;;;8.13;100.00;102839.03;5014344;28;20220;-75
2023/12/17 01:05:54;;;;;;;21.37;17.63;;;8.90;99.90;;;8.11;100.00;102843.59;5013983;28;20254;-76
2023/12/17 01:08:23;;;;;;;20.63;17.73;;;8.90;99.90;;;8.11;100.00;102846.28;5013583;28;20208;-76
2023/12/17 01:10:51;;;;;;;22.07;18.73;;;8.90;99.90;;;8.12;100.00;102838.16;5013551;28;20715;-76
2023/12/17 01:13:19;;;;;;;22.13;16.10;;;9.00;99.90;;;8.12;100.00;102838.16;5013539;28;20242;-76
2023/12/17 01:15:47;;;;;;;19.30;16.80;;;8.90;99.90;;;8.14;100.00;102835.41;5013704;28;20294;-76
2023/12/17 01:18:15;;;;;;;17.73;15.77;;;9.00;99.90;;;8.14;100.00;102835.41;5013852;28;20211;-76
2023/12/17 01:20:44;;;;;;;17.83;15.93;;;9.00;99.90;;;8.14;100.00;102832.75;5013124;28;20203;-76
2023/12/17 01:23:14;;;;;;;18.40;15.30;;;9.00;99.90;;;8.13;100.00;102828.34;5013853;28;20298;-76
2023/12/17 01:25:42;;;;;;;18.40;15.00;;;8.90;99.90;;;8.13;100.00;102823.88;5013598;28;20318;-77
2023/12/17 01:28:10;;;;;;;17.40;14.87;;;9.00;99.90;;;8.13;100.00;102813.22;5013905;28;20212;-76
2023/12/17 01:30:38;;;;;;;16.93;14.70;;;9.00;99.90;;;8.13;100.00;102823.88;5013385;28;20547;-76
2023/12/17 01:33:07;;;;;;;15.70;13.70;;;9.00;99.90;;;8.14;100.00;102814.06;5013673;28;20227;-76
2023/12/17 01:35:35;;;;;;;15.47;13.50;;;9.00;99.90;;;8.15;100.00;102831.78;5013684;28;20210;-76
2023/12/17 01:38:03;;;;;;;15.37;13.77;;;8.90;99.90;;;8.15;100.00;102845.13;5013268;28;20614;-77
2023/12/17 01:40:33;;;;;;;15.50;13.33;;;9.00;99.90;;;8.15;100.00;102839.78;5013542;28;20632;-76
2023/12/17 01:43:04;;;;;;;15.50;12.97;;;9.00;99.90;;;8.17;100.00;102835.22;5013541;28;20263;-75
2023/12/17 01:45:32;;;;;;;14.43;12.20;;;9.00;99.90;;;8.19;100.00;102833.31;5013178;28;20628;-76
2023/12/17 01:48:01;;;;;;;14.87;12.03;;;9.00;99.90;;;8.17;100.00;102835.22;5013573;28;20242;-76
2023/12/17 01:50:29;;;;;;;14.40;11.67;;;9.00;99.90;;;8.19;100.00;102822.63;5013504;28;20247;-76
2023/12/17 01:52:59;;;;;;;14.03;11.63;;;9.00;99.90;;;8.18;100.00;102820.06;5013385;28;20227;-76
2023/12/17 01:55:29;;;;;;;12.90;10.97;;;9.00;99.90;;;8.18;100.00;102832.44;5013432;28;20235;-76
2023/12/17 01:57:58;;;;;;;12.53;11.23;;;9.00;99.90;;;8.20;100.00;102839.50;5013103;28;20665;-76
2023/12/17 02:00:27;;;;;;;11.27;9.80;;;9.00;99.90;;;8.18;100.00;102848.44;5013383;28;20576;-75
2023/12/17 02:02:55;;;;;;;11.57;10.37;;;9.00;99.90;;;8.19;100.00;102846.66;5013494;28;20231;-75
2023/12/17 02:05:23;;;;;;;13.37;10.57;;;9.00;99.90;;;8.20;100.00;102843.03;5013397;28;20238;-77
2023/12/17 02:07:52;;;;;;;13.53;10.33;;;9.00;99.90;;;8.21;100.00;102854.56;5013330;28;20231;-77
2023/12/17 02:10:20;;;;;;;11.90;10.53;;;9.00;99.90;;;8.22;100.00;102849.13;5013283;28;20258;-76
2023/12/17 02:12:48;;;;;;;11.57;10.37;;;9.00;99.90;;;8.20;100.00;102843.03;5012956;28;20262;-77
2023/12/17 02:15:18;;;;;;;11.70;9.00;;;9.00;99.90;;;8.20;100.00;102845.72;5013265;28;20243;-76
2023/12/17 02:17:46;;;;;;;9.80;8.80;;;9.00;99.90;;;8.19;100.00;102846.66;5013879;28;20257;-76
2023/12/17 02:20:14;;;;;;;12.20;9.50;;;9.00;99.90;;;8.20;100.00;102843.03;5013249;28;20207;-76
2023/12/17 02:22:44;;;;;;;10.83;9.10;;;9.00;99.90;;;8.23;100.00;102845.50;5013187;28;20259;-77
2023/12/17 02:25:14;;;;;;;11.27;9.63;;;9.00;99.90;;;8.21;100.00;102852.78;5013127;28;20199;-77
2023/12/17 02:27:43;;;;;;;11.63;9.27;;;9.00;99.90;;;8.24;100.00;102852.56;5013229;28;20231;-77
2023/12/17 02:30:12;;;;;;;9.43;8.43;;;9.00;99.90;;;8.24;100.00;102849.91;5013476;28;20211;-76
2023/12/17 02:32:41;;;;;;;11.43;8.77;;;9.10;99.90;;;8.25;100.00;102850.78;5016789;28;20404;-76
2023/12/17 02:35:09;;;;;;;10.43;9.00;;;9.10;99.90;;;8.25;100.00;102856.09;5016611;28;20231;-76
2023/12/17 02:37:38;;;;;;;9.07;8.17;;;9.10;99.90;;;8.25;100.00;102850.78;5016671;28;20643;-76
2023/12/17 02:40:08;;;;;;;9.73;8.70;;;9.00;99.90;;;8.25;100.00;102859.63;5016490;28;20212;-77
2023/12/17 02:42:38;;;;;;;9.37;8.40;;;9.10;99.90;;;8.23;100.00;102850.84;5016498;28;20227;-76
2023/12/17 02:45:08;;;;;;;8.83;7.77;;;9.00;99.90;;;8.26;100.00;102845.31;5016121;28;20728;-77
2023/12/17 02:47:36;;;;;;;9.20;8.30;;;9.10;99.90;;;8.27;100.00;102846.19;5016540;28;20211;-77
2023/12/17 02:50:06;;;;;;;9.40;8.40;;;9.00;99.90;;;8.26;100.00;102845.31;5016371;28;20620;-77
2023/12/17 02:52:34;;;;;;;9.87;8.60;;;9.10;99.90;;;8.25;100.00;102843.63;5016318;28;20227;-77
2023/12/17 02:55:03;;;;;;;9.73;8.13;;;9.10;99.90;;;8.26;100.00;102841.78;5016595;28;20302;-77
2023/12/17 02:57:31;;;;;;;9.40;8.37;;;9.10;99.90;;;8.26;100.00;102833.78;5015924;28;20672;-76
2023/12/17 03:00:01;;;;;;;9.30;8.37;;;9.00;99.90;;;8.28;100.00;102826.56;5016261;28;20212;-76
2023/12/17 03:02:29;;;;;;;9.87;8.40;;;9.10;99.90;;;8.27;100.00;102833.72;5015747;28;20289;-77
2023/12/17 03:04:58;;;;;;;10.43;9.00;;;9.10;99.90;;;8.29;100.00;102845.16;5016064;28;20208;-72
2023/12/17 03:07:26;;;;;;;10.23;8.37;;;9.10;99.90;;;8.28;100.00;102835.47;5015627;28;20253;-72
2023/12/17 03:09:55;;;;;;;9.47;8.50;;;9.10;99.90;;;8.29;100.00;102836.31;5015964;28;20209;-72
2023/12/17 03:12:23;;;;;;;10.80;9.00;;;9.10;99.90;;;8.29;100.00;102839.81;5015514;28;20552;-72
2023/12/17 03:14:51;;;;;;;10.70;9.60;;;9.10;99.90;;;8.30;100.00;102836.22;5016102;28;20266;-72
2023/12/17 03:17:21;;;;;;;10.47;8.93;;;9.10;99.90;;;8.30;100.00;102814.88;5015783;28;20210;-72
2023/12/17 03:19:49;;;;;;;10.23;9.17;;;9.10;99.90;;;8.30;100.00;102825.53;5015486;28;20768;-72
2023/12/17 03:22:17;;;;;;;9.00;8.10;;;9.10;99.90;;;8.31;100.00;102829.06;5016083;28;20689;-72
2023/12/17 03:24:45;;;;;;;10.33;9.23;;;9.10;99.90;;;8.29;100.00;102821.16;5015690;28;20294;-72
2023/12/17 03:27:13;;;;;;;10.33;9.33;;;9.10;99.90;;;8.29;100.00;102813.13;5015552;28;20327;-72
2023/12/17 03:29:41;;;;;;;10.87;9.77;;;9.10;99.90;;;8.30;100.00;102812.19;5015811;28;20218;-72
2023/12/17 03:32:10;;;;;;;10.00;9.00;;;9.10;99.90;;;8.31;100.00;102810.38;5015447;28;20224;-72
2023/12/17 03:34:39;;;;;;;10.67;9.60;;;9.10;99.90;;;8.30;100.00;102808.66;5015494;28;20211;-72
2023/12/17 03:37:07;;;;;;;10.73;9.63;;;9.10;99.90;;;8.31;100.00;102807.72;5015294;28;20203;-72
2023/12/17 03:39:36;;;;;;;11.20;10.00;;;9.10;99.90;;;8.30;100.00;102801.53;5015360;28;20203;-72
2023/12/17 03:42:04;;;;;;;10.93;9.77;;;9.10;99.90;;;8.30;100.00;102798.84;5014344;28;20238;-72
2023/12/17 03:44:33;;;;;;;11.70;10.03;;;9.10;99.90;;;8.30;100.00;102790.84;5015257;28;20211;-72
2023/12/17 03:47:01;;;;;;;11.43;10.00;;;9.10;99.90;;;8.30;100.00;102784.66;5014867;28;20688;-72
2023/12/17 03:49:29;;;;;;;11.87;10.67;;;9.10;99.90;;;8.29;100.00;102786.44;5014893;28;20221;-72
2023/12/17 03:51:59;;;;;;;11.27;10.10;;;9.10;99.90;;;8.33;100.00;102792.47;5014793;28;20579;-72
2023/12/17 03:54:27;;;;;;;11.33;10.23;;;9.10;99.90;;;8.33;100.00;102787.13;5015026;28;20241;-72
2023/12/17 03:56:55;;;;;;;11.57;10.17;;;9.10;99.90;;;8.33;100.00;102790.66;5015079;28;20204;-72
2023/12/17 03:59:23;;;;;;;10.87;9.77;;;9.10;99.90;;;8.33;100.00;102787.97;5014605;28;20699;-72
2023/12/17 04:01:51;;;;;;;10.93;9.77;;;9.10;99.90;;;8.33;100.00;102781.78;5014676;28;20241;-76
2023/12/17 04:04:20;;;;;;;11.47;10.27;;;9.10;99.90;;;8.32;100.00;102780.09;5014910;28;20700;-76
2023/12/17 04:06:48;;;;;;;12.87;10.00;;;9.10;99.90;;;8.31;100.00;102781.03;5014747;28;20253;-76
2023/12/17 04:09:17;;;;;;;10.57;9.47;;;9.10;99.90;;;8.31;100.00;102784.56;5014679;28;20303;-76
2023/12/17 04:11:45;;;;;;;11.23;10.07;;;9.10;99.90;;;8.32;100.00;102780.91;5014785;28;20307;-76
2023/12/17 04:14:13;;;;;;;11.67;10.27;;;9.10;99.90;;;8.31;100.00;102778.38;5014715;28;20265;-76
2023/12/17 04:16:42;;;;;;;10.40;9.40;;;9.10;99.90;;;8.31;100.00;102773.88;5014847;28;20204;-75
2023/12/17 04:19:10;;;;;;;11.57;9.77;;;9.10;99.90;;;8.32;100.00;102772.09;5014685;28;20207;-75
2023/12/17 04:21:40;;;;;;;11.37;10.20;;;9.10;99.90;;;8.31;100.00;102757.88;5014376;28;20227;-75
2023/12/17 04:24:08;;;;;;;10.83;9.70;;;9.10;99.90;;;8.31;100.00;102757.88;5014910;28;20302;-75
2023/12/17 04:26:37;;;;;;;11.10;10.00;;;9.10;99.90;;;8.31;100.00;102752.53;5014538;28;20223;-75
2023/12/17 04:29:05;;;;;;;12.37;10.50;;;9.10;99.90;;;8.33;99.34;102765.78;5014439;28;20203;-75
2023/12/17 04:31:34;;;;;;;11.50;10.40;;;9.10;99.90;;;8.32;99.69;102758.75;5014066;28;20318;-74
2023/12/17 04:34:02;;;;;;;11.57;10.33;;;9.10;99.90;;;8.32;100.00;102764.91;5014059;28;20687;-74
2023/12/17 04:36:30;;;;;;;11.43;10.17;;;9.10;99.90;;;8.33;99.70;102763.97;5014354;28;20208;-75
2023/12/17 04:38:58;;;;;;;12.40;10.73;;;9.10;99.90;;;8.32;99.78;102764.06;5014299;28;20268;-75
2023/12/17 04:41:26;;;;;;;12.13;10.83;;;9.10;99.90;;;8.31;99.60;102757.88;5014178;28;20259;-75
2023/12/17 04:43:56;;;;;;;13.83;10.53;;;9.10;99.90;;;8.31;99.61;102768.56;5014062;28;20708;-76
2023/12/17 04:46:24;;;;;;;10.77;9.73;;;9.10;99.90;;;8.32;99.68;102762.25;5014057;28;20654;-75
2023/12/17 04:48:52;;;;;;;12.30;11.00;;;9.10;99.90;;;8.32;99.43;102754.22;5013882;28;20747;-75
2023/12/17 04:51:21;;;;;;;11.37;10.17;;;9.10;99.90;;;8.32;99.41;102750.72;5014044;28;20227;-75
2023/12/17 04:53:50;;;;;;;12.43;11.13;;;9.10;99.90;;;8.31;99.66;102746.34;5013916;28;20286;-73
2023/12/17 04:56:22;;;;;;;11.23;10.03;;;9.10;99.90;;;8.31;99.68;102749.00;5014254;28;20298;-73
2023/12/17 04:58:50;;;;;;;12.47;10.97;;;9.10;99.90;;;8.32;99.22;102748.91;5014061;28;20198;-73
2023/12/17 05:01:19;;;;;;;11.23;10.13;;;9.10;99.90;;;8.32;99.27;102753.41;5013543;28;20783;-72
2023/12/17 05:03:47;;;;;;;10.27;9.20;;;9.10;99.90;;;8.31;99.53;102755.22;5013751;28;20560;-73
2023/12/17 05:06:17;;;;;;;10.37;9.27;;;9.10;99.90;;;8.30;99.28;102753.47;5013884;28;20210;-73
2023/12/17 05:08:45;;;;;;;11.23;10.13;;;9.10;99.90;;;8.29;98.71;102754.44;5014069;28;20227;-73
2023/12/17 05:11:13;;;;;;;12.40;10.67;;;9.10;99.90;;;8.33;98.90;102744.41;5013882;28;20751;-73
2023/12/17 05:13:41;;;;;;;10.67;9.57;;;9.10;99.90;;;8.32;98.77;102759.56;5014007;28;20251;-73
2023/12/17 05:16:12;;;;;;;10.97;9.70;;;9.10;99.90;;;8.31;98.99;102752.53;5013525;28;20262;-73
2023/12/17 05:18:42;;;;;;;11.10;9.90;;;9.10;99.90;;;8.32;99.35;102759.56;5013920;28;20184;-73
2023/12/17 05:21:10;;;;;;;11.07;9.70;;;9.10;99.90;;;8.32;99.10;102754.22;5013768;28;20223;-73
2023/12/17 05:23:38;;;;;;;11.63;10.43;;;9.10;99.90;;;8.32;99.37;102759.56;5013412;28;20212;-73
2023/12/17 05:26:07;;;;;;;11.63;10.40;;;9.10;99.90;;;8.32;99.33;102756.06;5013465;28;20757;-73
2023/12/17 05:28:37;;;;;;;11.47;10.27;;;9.10;99.90;;;8.32;99.75;102759.56;5013630;28;20231;-72
2023/12/17 05:31:06;;;;;;;11.70;10.50;;;9.10;99.90;;;8.33;98.95;102755.97;5013670;28;20195;-73
2023/12/17 05:33:34;;;;;;;11.53;10.33;;;9.10;99.90;;;8.33;99.38;102766.63;5013651;28;20212;-73
2023/12/17 05:36:05;;;;;;;11.90;10.60;;;9.10;99.90;;;8.32;99.39;102767.56;5013588;28;20211;-72
2023/12/17 05:38:33;;;;;;;11.73;10.33;;;9.10;99.90;;;8.33;98.71;102755.09;5013442;28;20645;-72
2023/12/17 05:41:02;;;;;;;11.77;10.57;;;9.10;99.90;;;8.32;99.03;102759.56;5013221;28;20746;-73
2023/12/17 05:43:30;;;;;;;11.80;10.60;;;9.10;99.90;;;8.32;99.14;102756.06;5013541;28;20608;-73
2023/12/17 05:45:58;;;;;;;11.23;10.03;;;9.10;99.90;;;8.32;99.32;102759.56;5013493;28;20294;-73
2023/12/17 05:48:34;;;;;;;12.40;10.97;;;9.10;99.90;;;8.31;99.79;102757.00;5013434;28;20215;-73
2023/12/17 05:51:09;;;;;;;12.53;11.23;;;9.10;99.90;;;8.30;99.40;102756.16;5013021;28;20687;-73
2023/12/17 05:53:37;;;;;;;13.03;10.93;;;9.10;99.90;;;8.30;99.60;102758.81;5013405;28;20195;-73
2023/12/17 05:56:14;;;;;;;13.07;11.70;;;9.10;99.90;;;8.29;99.42;102759.75;5013109;28;20769;-72
2023/12/17 05:58:43;;;;;;;13.23;11.83;;;9.10;99.90;;;8.30;99.63;102748.16;5013399;28;20204;-73
2023/12/17 06:01:12;;;;;;;13.40;11.87;;;9.10;99.90;;;8.29;99.59;102749.09;5013112;28;20286;-73
2023/12/17 06:03:40;;;;;;;13.00;11.50;;;9.10;99.90;;;8.29;99.37;102757.09;5013392;28;20188;-72
2023/12/17 06:06:10;;;;;;;13.03;11.73;;;9.10;99.90;;;8.29;99.45;102764.28;5015116;28;20310;-73
2023/12/17 06:08:38;;;;;;;14.10;12.60;;;9.10;99.90;;;8.29;99.24;102764.28;5016973;28;20231;-73
2023/12/17 06:11:07;;;;;;;13.33;11.60;;;9.00;99.90;;;8.29;99.54;102773.09;5016922;28;20207;-73
2023/12/17 06:13:36;;;;;;;12.87;11.33;;;9.10;99.90;;;8.30;99.50;102781.97;5017018;28;20298;-72
2023/12/17 06:16:05;;;;;;;12.97;11.63;;;9.10;99.90;;;8.31;99.33;102778.38;5016692;28;20673;-72
2023/12/17 06:18:33;;;;;;;13.07;11.70;;;9.10;99.90;;;8.30;99.44;102769.50;5016920;28;20210;-73
2023/12/17 06:21:02;;;;;;;13.10;11.43;;;9.10;99.90;;;8.30;99.29;102766.81;5016464;28;20669;-72
2023/12/17 06:23:32;;;;;;;12.97;11.50;;;9.10;99.90;;;8.31;99.91;102767.69;5016482;28;20210;-73
2023/12/17 06:26:04;;;;;;;12.90;11.60;;;9.10;99.90;;;8.30;99.75;102769.50;5016848;28;20318;-73
2023/12/17 06:28:32;;;;;;;13.30;11.47;;;9.10;99.90;;;8.29;99.73;102769.59;5016643;28;20211;-73
2023/12/17 06:31:00;;;;;;;12.20;11.00;;;9.00;99.90;;;8.29;99.44;102774.94;5016441;28;20242;-73
2023/12/17 06:33:29;;;;;;;12.20;11.00;;;9.10;99.90;;;8.29;99.54;102781.13;5016404;28;20677;-73
2023/12/17 06:35:57;;;;;;;12.93;11.63;;;9.10;99.90;;;8.31;98.99;102779.22;5016266;28;20215;-73
2023/12/17 06:38:25;;;;;;;12.57;11.27;;;9.10;99.90;;;8.31;98.94;102778.38;5016549;28;20238;-73
2023/12/17 06:40:55;;;;;;;13.47;12.07;;;9.10;99.90;;;8.30;98.92;102774.84;5016286;28;20259;-73
2023/12/17 06:43:24;;;;;;;13.50;12.10;;;9.10;99.90;;;8.32;99.07;102774.75;5016509;28;20243;-73
2023/12/17 06:45:52;;;;;;;12.37;11.13;;;9.10;99.90;;;8.33;98.87;102776.44;5016407;28;20245;-73
2023/12/17 06:48:21;;;;;;;13.57;12.17;;;9.10;99.90;;;8.32;99.00;102775.59;5015930;28;20615;-72
2023/12/17 06:50:49;;;;;;;14.27;12.77;;;9.10;99.90;;;8.31;98.83;102773.88;5016253;28;20233;-73
2023/12/17 06:53:18;;;;;;;14.53;13.00;;;9.10;99.90;;;8.32;98.80;102774.75;5016300;28;20215;-73
2023/12/17 06:55:46;;;;;;;14.67;12.83;;;9.10;99.90;;;8.31;98.67;102773.03;5016248;28;20210;-73
2023/12/17 06:58:15;;;;;;;14.70;12.83;;;9.10;99.90;;;8.30;98.85;102780.16;5015938;28;20239;-73
2023/12/17 07:00:44;;;;;;;15.57;13.63;;;9.10;99.90;;;8.30;99.21;102782.84;5016219;28;20288;-73
2023/12/17 07:03:12;;;;;;;14.50;13.00;;;9.10;99.90;;;8.30;99.13;102781.97;5015863;28;20258;-72
2023/12/17 07:05:41;;;;;;;16.10;14.00;;;9.10;99.90;;;8.30;98.97;102782.84;5016137;28;20212;-72
2023/12/17 07:08:09;;;;;;;15.00;13.30;;;9.10;99.90;;;8.30;98.90;102768.63;5015944;28;20228;-72
2023/12/17 07:10:37;;;;;;;14.67;13.10;;;9.10;99.90;;;8.30;98.62;102777.50;5015984;28;20294;-72
2023/12/17 07:13:05;;;;;;;15.37;13.73;;;9.10;99.90;;;8.29;99.10;102775.78;5015486;28;20318;-72
2023/12/17 07:15:35;;;;;;;16.10;14.47;;;9.10;99.90;;;8.29;98.72;102773.09;5015948;28;20261;-73
2023/12/17 07:18:03;;;;;;;18.00;15.53;;;9.10;99.90;;;8.28;98.98;102779.41;5015834;28;20204;-73
2023/12/17 07:20:32;;;;;;;16.73;15.00;;;9.10;99.90;;;8.28;99.25;102779.41;5015506;28;20732;-74
2023/12/17 07:23:00;;;;;;;17.40;14.67;;;9.10;99.90;;;8.30;99.11;102789.97;5015536;28;20815;-74
2023/12/17 07:25:28;;;;;;;17.33;14.90;;;9.10;99.90;;;8.29;98.98;102785.63;5015598;28;20630;-74
2023/12/17 07:27:56;;;;;;;17.00;15.20;;;9.10;99.90;;;8.28;99.40;102771.41;5015194;28;20580;-74
2023/12/17 07:30:25;;;;;;;17.53;15.73;;;9.10;99.90;;;8.27;99.45;102788.34;5015562;28;20294;-74
2023/12/17 07:32:55;;;;;;;17.63;15.73;;;9.10;99.90;;;8.27;99.95;102783.00;5015473;28;20322;-74
2023/12/17 07:35:23;;;;;;;17.07;15.27;;;9.10;99.90;;;8.26;99.52;102793.75;5015451;28;20207;-74
2023/12/17 07:37:51;;;;;;;16.90;15.10;;;9.10;99.90;;;8.26;99.81;102786.63;5015135;28;20614;-74
2023/12/17 07:40:19;;;;;;;19.20;16.60;;;9.00;99.90;;;8.26;100.00;102791.94;5015429;28;20203;-74
2023/12/17 07:42:47;;;;;;;17.17;15.37;;;9.00;99.90;;;8.26;100.00;102781.28;5014959;28;20263;-73
2023/12/17 07:45:16;;;;;;;18.53;16.53;;;9.10;99.90;;;8.24;100.00;102782.34;5015271;28;20203;-73
2023/12/17 07:47:44;;;;;;;18.07;15.73;;;9.00;99.90;;;8.24;100.00;102799.22;5014956;28;20692;-73
2023/12/17 07:50:16;;;;;;;18.63;16.60;;;9.00;99.90;;;8.22;100.00;102774.41;5015043;28;20234;-73
2023/12/17 07:52:44;;;;;;;18.87;16.20;;;9.00;99.90;;;8.22;100.00;102781.59;5015107;28;20238;-73
2023/12/17 07:55:13;;;;;;;17.73;15.83;;;9.00;99.90;;;8.21;100.00;102770.06;5014820;28;20641;-72
2023/12/17 07:57:41;;;;;;;18.20;16.20;;;9.00;99.90;;;8.22;100.00;102769.06;5015120;28;20299;-72
2023/12/17 08:00:13;;;;;;;19.23;16.53;;;9.00;99.90;;;8.22;100.00;102771.75;5015024;28;20215;-73
2023/12/17 08:02:41;;;;;;;20.13;17.03;;;9.00;99.90;;;8.22;100.00;102762.91;5014681;28;20239;-73
2023/12/17 08:05:10;;;;;;;17.27;15.47;;;9.00;99.90;;;8.21;100.00;102767.38;5014845;28;20302;-73
2023/12/17 08:07:39;;;;;;;18.47;16.47;;;9.00;99.90;;;8.21;100.00;102782.53;5014950;28;20208;-73
2023/12/17 08:10:08;;;;;;;18.10;16.20;;;9.00;99.90;;;8.21;100.00;102787.88;5014700;28;20318;-73
2023/12/17 08:12:37;;;;;;;17.77;15.87;;;9.00;99.90;;;8.21;100.00;102782.53;5014803;28;20254;-73
2023/12/17 08:15:06;;;;;;;18.27;16.27;;;9.00;99.90;;;8.21;100.00;102788.72;5014705;28;20211;-73
2023/12/17 08:17:34;;;;;;;18.97;15.97;;;9.00;99.90;;;8.21;100.00;102788.72;5014752;28;20211;-73
2023/12/17 08:20:03;;;;;;;17.60;15.80;;;9.00;99.90;;;8.21;100.00;102794.06;5014919;28;20207;-73
2023/12/17 08:22:32;;;;;;;17.77;15.57;;;9.00;99.90;;;8.22;100.00;102793.09;5014340;28;20724;-73
2023/12/17 08:25:01;;;;;;;17.30;15.43;;;9.00;99.90;;;8.23;100.00;102794.81;5014608;28;20207;-73
2023/12/17 08:27:30;;;;;;;18.53;16.60;;;9.00;99.90;;;8.23;100.00;102789.47;5014542;28;20261;-73
2023/12/17 08:29:59;;;;;;;18.83;16.33;;;9.00;99.90;;;8.23;100.00;102793.94;5013796;28;20235;-73
2023/12/17 08:32:31;;;;;;;18.63;16.40;;;9.00;99.90;;;8.23;100.00;102797.47;5014165;28;20782;-73
2023/12/17 08:35:00;;;;;;;17.63;15.70;;;9.00;99.90;;;8.24;100.00;102799.22;5014560;28;20198;-73
2023/12/17 08:37:29;;;;;;;17.63;15.73;;;9.00;99.90;;;8.24;100.00;102799.22;5014474;28;20250;-73
2023/12/17 08:39:58;;;;;;;18.80;16.10;;;9.00;99.90;;;8.25;100.00;102800.94;5014172;28;20254;-73
2023/12/17 08:42:27;;;;;;;17.43;15.53;;;9.00;99.90;;;8.26;100.00;102799.97;5014284;28;20411;-73
2023/12/17 08:44:55;;;;;;;17.47;15.67;;;9.00;99.90;;;8.26;100.00;102802.63;5014298;28;20294;-73
2023/12/17 08:47:24;;;;;;;26.17;22.97;;;9.00;99.90;;;8.28;100.00;102794.53;5013979;28;20261;-73
2023/12/17 08:49:52;;;;;;;19.93;17.27;;;9.10;99.90;;;8.29;100.00;102791.78;5014715;28;20227;-73
2023/12/17 08:52:20;;;;;;;29.90;22.93;;;9.10;99.90;;;8.29;100.00;102797.13;5014134;28;20227;-73
2023/12/17 08:54:48;;;;;;;24.80;21.13;;;9.10;99.90;;;8.28;100.00;102792.75;5014283;28;20294;-73
2023/12/17 08:57:17;;;;;;;25.17;19.93;;;9.10;99.90;;;8.29;100.00;102796.28;5013789;28;20216;-73
2023/12/17 08:59:46;;;;;;;28.23;24.70;;;9.10;99.90;;;8.28;100.00;102792.75;5014091;28;20204;-73
2023/12/17 09:02:15;;;;;;;22.70;19.20;;;9.10;99.90;;;8.29;100.00;102791.78;5013630;28;20290;-72
2023/12/17 09:04:43;;;;;;;19.80;17.70;;;9.10;99.90;;;8.29;100.00;102794.47;5014283;28;20215;-73
2023/12/17 09:07:11;;;;;;;26.17;22.73;;;9.10;99.90;;;8.29;100.00;102798.97;5013962;28;20261;-72
2023/12/17 09:09:39;;;;;;;24.73;20.60;;;9.00;99.90;;;8.28;100.00;102790.09;5013517;28;20274;-73
2023/12/17 09:12:08;;;;;;;41.90;29.97;;;9.10;99.90;;;8.30;100.00;102784.66;5013590;28;20235;-73
2023/12/17 09:14:37;;;;;;;34.33;27.23;;;9.10;99.90;;;8.29;100.00;102773.09;5013686;28;20724;-73
2023/12/17 09:17:06;;;;;;;18.37;16.47;;;9.10;99.90;;;8.31;100.00;102775.69;5013810;28;20270;-72
2023/12/17 09:19:35;;;;;;;20.80;18.40;;;9.10;99.90;;;8.30;100.00;102772.16;5013830;28;20194;-72
2023/12/17 09:22:04;;;;;;;18.87;15.97;;;9.10;99.90;;;8.32;100.00;102770.25;5013752;28;20231;-73
2023/12/17 09:24:33;;;;;;;17.90;16.10;;;9.10;99.90;;;8.32;100.00;102770.25;5013805;28;20207;-73
2023/12/17 09:27:02;;;;;;;18.13;14.87;;;9.10;99.90;;;8.33;100.00;102769.31;5013674;28;20207;-73
2023/12/17 09:29:30;;;;;;;18.10;16.10;;;9.10;99.90;;;8.34;100.00;102779.03;5013374;28;20258;-73
2023/12/17 09:31:58;;;;;;;22.13;18.87;;;9.10;99.90;;;8.35;100.00;102769.22;5013341;28;20285;-73
2023/12/17 09:34:31;;;;;;;26.13;21.00;;;9.10;99.90;;;8.38;100.00;102774.34;5013718;28;20222;-73
2023/12/17 09:37:00;;;;;;;17.27;14.30;;;9.20;99.90;;;8.39;100.00;102770.75;5013626;28;20299;-73
2023/12/17 09:39:28;;;;;;;17.17;15.30;;;9.20;99.90;;;8.41;100.00;102771.50;5013729;28;20634;-73
2023/12/17 09:41:57;;;;;;;17.00;15.20;;;9.20;99.90;;;8.41;100.00;102775.03;5016817;28;20254;-73
2023/12/17 09:44:26;;;;;;;16.90;14.53;;;9.20;99.90;;;8.42;100.00;102763.41;5017631;28;20207;-73
2023/12/17 09:46:53;;;;;;;19.13;15.97;;;9.20;99.90;;;8.42;100.00;102760.72;5017792;28;20242;-72
2023/12/17 09:49:22;;;;;;;16.83;15.10;;;9.20;99.90;;;8.42;99.72;102755.41;5017152;28;20707;-73
2023/12/17 09:52:05;;;;;;;17.27;15.37;;;9.20;99.90;;;8.44;99.74;102758.81;5017056;28;20728;-73
2023/12/17 09:54:34;;;;;;;18.90;16.33;;;9.20;99.90;;;8.44;98.94;102749.94;5017564;28;20195;-73
2023/12/17 09:57:06;;;;;;;19.80;15.77;;;9.10;99.90;;;8.45;98.84;102755.19;5017022;28;20585;-72
2023/12/17 09:59:34;;;;;;;21.87;17.00;;;9.30;99.90;;;8.46;98.58;102756.06;5017303;28;20188;-73
2023/12/17 10:02:03;;;;;;;18.67;16.23;;;9.20;99.90;;;8.45;97.55;102755.19;5016448;28;20329;-73
2023/12/17 10:04:31;;;;;;;21.33;16.57;;;9.30;99.90;;;8.44;97.86;102748.13;5015962;28;20294;-73
2023/12/17 10:07:00;;;;;;;19.93;16.70;;;9.20;99.90;;;8.44;97.41;102753.47;5016517;28;20219;-73
2023/12/17 10:09:31;;;;;;;18.67;14.40;;;9.20;99.90;;;8.42;96.96;102744.72;5015770;28;20208;-73
2023/12/17 10:11:59;;;;;;;16.90;14.80;;;9.20;99.90;;;8.42;96.90;102750.06;5016117;28;20285;-73
2023/12/17 10:14:30;;;;;;;19.03;14.70;;;9.20;99.90;;;8.43;96.85;102746.41;5015470;28;20735;-73
2023/12/17 10:17:00;;;;;;;17.30;14.93;;;9.20;99.90;;;8.45;96.56;102743.66;5015725;28;20334;-73